createdAt,value
2023-04-03T02:46:39.636Z,53.74
2023-04-03T02:49:06.693Z,54.14
2023-04-03T02:51:33.640Z,53.56
2023-04-03T02:54:00.568Z,53.65
2023-04-03T02:56:30.994Z,53.58
2023-04-03T02:58:57.972Z,53.29
2023-04-03T03:01:25.175Z,53.55
2023-04-03T03:03:51.736Z,53.43
2023-04-03T03:06:18.562Z,53.08
2023-04-03T03:08:45.449Z,52.63
2023-04-03T03:11:12.242Z,52.55
2023-04-03T03:13:39.119Z,52.55
2023-04-03T03:16:06.488Z,52.73
2023-04-03T03:18:33.932Z,52.63
2023-04-03T03:21:01.929Z,52.54
2023-04-03T03:23:31.057Z,52.67
2023-04-03T03:25:58.909Z,52.92
2023-04-03T03:28:25.888Z,52.42
2023-04-03T03:30:52.571Z,52.19
2023-04-03T03:33:19.847Z,51.96
2023-04-03T03:35:46.955Z,52.11
2023-04-03T03:38:13.557Z,52.05
2023-04-03T03:40:40.327Z,51.71
2023-04-03T03:43:07.418Z,51.84
2023-04-03T03:45:34.237Z,51.84
2023-04-03T03:48:02.662Z,51.48
2023-04-03T03:50:29.464Z,51.22
2023-04-03T03:52:56.564Z,50.60
2023-04-03T03:55:23.121Z,50.67
2023-04-03T03:57:53.551Z,51.13
2023-04-03T04:00:21.083Z,50.57
2023-04-03T04:02:53.723Z,50.60
2023-04-03T04:05:23.274Z,50.68
2023-04-03T04:07:50.192Z,50.21
2023-04-03T04:10:16.887Z,49.68
2023-04-03T04:12:44.997Z,50.03
2023-04-03T04:15:12.173Z,50.14
2023-04-03T04:17:40.083Z,49.71
2023-04-03T04:20:11.907Z,49.79
2023-04-03T04:22:40.080Z,49.72
2023-04-03T04:25:07.390Z,49.50
2023-04-03T04:27:34.767Z,49.55
2023-04-03T04:30:01.929Z,49.33
2023-04-03T04:32:28.694Z,49.28
2023-04-03T04:34:55.760Z,49.49
2023-04-03T04:37:22.870Z,49.68
2023-04-03T04:39:49.571Z,50.27
2023-04-03T04:42:17.431Z,49.93
2023-04-03T04:44:45.905Z,50.06
2023-04-03T04:47:14.198Z,50.17
2023-04-03T04:49:40.984Z,50.03
2023-04-03T04:52:08.457Z,50.83
2023-04-03T04:54:35.677Z,50.29
2023-04-03T04:57:02.369Z,50.27
2023-04-03T04:59:29.903Z,50.59
2023-04-03T05:01:58.406Z,50.50
2023-04-03T05:04:26.304Z,50.17
2023-04-03T05:06:59.155Z,50.07
2023-04-03T05:09:28.004Z,49.89
2023-04-03T05:11:57.114Z,49.85
2023-04-03T05:14:27.058Z,50.05
2023-04-03T05:16:56.121Z,50.47
2023-04-03T05:19:26.679Z,50.61
2023-04-03T05:21:53.786Z,50.37
2023-04-03T05:24:20.799Z,50.04
2023-04-03T05:26:47.784Z,50.44
2023-04-03T05:29:15.619Z,50.31
2023-04-03T05:31:42.560Z,49.98
2023-04-03T05:34:11.487Z,49.82
2023-04-03T05:36:39.617Z,50.20
2023-04-03T05:39:08.917Z,49.12
2023-04-03T05:41:38.734Z,49.80
2023-04-03T05:44:05.924Z,49.15
2023-04-03T05:46:32.755Z,49.11
2023-04-03T05:49:03.295Z,49.07
2023-04-03T05:51:35.938Z,49.19
2023-04-03T05:54:27.984Z,48.43
2023-04-03T05:57:01.730Z,48.17
2023-04-03T05:59:29.158Z,47.98
2023-04-03T06:01:58.331Z,47.94
2023-04-03T06:04:25.624Z,47.80
2023-04-03T06:06:56.040Z,47.56
2023-04-03T06:09:24.673Z,48.08
2023-04-03T06:11:51.331Z,48.23
2023-04-03T06:14:18.017Z,48.07
2023-04-03T06:16:44.841Z,48.17
2023-04-03T06:19:13.066Z,47.72
2023-04-03T06:21:44.895Z,47.78
2023-04-03T06:24:15.483Z,47.27
2023-04-03T06:26:42.470Z,47.21
2023-04-03T06:29:09.310Z,48.01
2023-04-03T06:31:37.492Z,47.42
2023-04-03T06:34:05.032Z,46.76
2023-04-03T06:36:32.765Z,46.38
2023-04-03T06:38:59.316Z,46.96
2023-04-03T06:41:27.173Z,46.83
2023-04-03T06:43:53.800Z,46.12
2023-04-03T06:46:22.757Z,45.30
2023-04-03T06:48:50.514Z,45.22
2023-04-03T06:51:28.867Z,45.36
2023-04-03T06:53:57.585Z,46.81
2023-04-03T06:56:24.571Z,45.80
2023-04-03T06:58:52.418Z,45.86
2023-04-03T07:01:22.600Z,46.46
2023-04-03T07:03:50.088Z,44.94
2023-04-03T07:06:17.778Z,45.31
2023-04-03T07:08:45.571Z,45.65
2023-04-03T07:11:12.848Z,45.62
2023-04-03T07:13:39.841Z,45.22
2023-04-03T07:16:07.235Z,44.90
2023-04-03T07:18:34.394Z,44.26
2023-04-03T07:21:01.444Z,43.60
2023-04-03T07:23:28.397Z,43.17
2023-04-03T07:25:55.227Z,43.16
2023-04-03T07:28:23.783Z,43.20
2023-04-03T07:30:59.859Z,42.93
2023-04-03T07:33:27.109Z,43.48
2023-04-03T07:35:53.645Z,42.84
2023-04-03T07:38:20.496Z,42.32
2023-04-03T07:40:51.548Z,41.91
2023-04-03T07:43:19.693Z,42.45
2023-04-03T07:45:46.519Z,43.26
2023-04-03T07:48:14.191Z,43.03
2023-04-03T07:50:41.546Z,42.80
2023-04-03T07:53:08.834Z,42.27
2023-04-03T07:55:38.374Z,43.26
2023-04-03T07:58:05.677Z,42.38
2023-04-03T08:00:32.389Z,42.22
2023-04-03T08:02:59.132Z,41.95
2023-04-03T08:05:26.215Z,41.73
2023-04-03T08:07:52.997Z,42.55
2023-04-03T08:10:19.727Z,41.78
2023-04-03T08:12:49.624Z,42.75
2023-04-03T08:15:17.272Z,42.50
2023-04-03T08:17:43.835Z,41.88
2023-04-03T08:20:11.358Z,42.77
2023-04-03T08:22:37.975Z,43.55
2023-04-03T08:25:04.866Z,42.27
2023-04-03T08:27:31.494Z,42.45
2023-04-03T08:29:58.187Z,42.02
2023-04-03T08:32:25.142Z,43.34
2023-04-03T08:34:51.888Z,44.06
2023-04-03T08:37:18.727Z,44.11
2023-04-03T08:39:45.323Z,43.31
2023-04-03T08:42:45.000Z,43.06
2023-04-03T08:45:17.017Z,43.61
2023-04-03T08:47:49.904Z,42.80
2023-04-03T08:50:21.939Z,42.83
2023-04-03T08:52:53.279Z,42.64
2023-04-03T08:55:27.954Z,43.07
2023-04-03T08:58:13.420Z,42.69
2023-04-03T09:01:06.133Z,42.78
2023-04-03T09:03:37.216Z,42.23
2023-04-03T09:06:22.488Z,41.17
2023-04-03T09:09:11.642Z,40.93
2023-04-03T09:11:58.333Z,40.12
2023-04-03T09:14:37.084Z,40.44
2023-04-03T09:17:13.601Z,40.65
2023-04-03T09:19:57.620Z,40.92
2023-04-03T09:22:32.739Z,40.78
2023-04-03T09:25:00.920Z,39.80
2023-04-03T09:27:28.093Z,40.51
2023-04-03T09:29:58.934Z,40.33
2023-04-03T09:32:31.239Z,39.39
2023-04-03T09:35:09.664Z,39.29
2023-04-03T09:37:46.965Z,38.97
2023-04-03T09:40:32.359Z,38.05
2023-04-03T09:43:21.401Z,38.96
2023-04-03T09:45:49.901Z,38.45
2023-04-03T09:48:20.162Z,39.14
2023-04-03T09:51:02.356Z,39.41
2023-04-03T09:53:44.036Z,38.66
2023-04-03T09:56:16.904Z,38.93
2023-04-03T09:58:50.900Z,38.85
2023-04-03T10:01:29.973Z,37.58
2023-04-03T10:04:26.164Z,38.96
2023-04-03T10:06:55.183Z,39.24
2023-04-03T10:09:25.949Z,38.43
2023-04-03T10:12:12.940Z,40.21
2023-04-03T10:14:42.177Z,39.64
2023-04-03T10:17:24.111Z,39.31
2023-04-03T10:20:00.168Z,38.85
2023-04-03T10:22:49.228Z,38.25
2023-04-03T10:25:31.370Z,38.82
2023-04-03T10:28:22.561Z,38.98
2023-04-03T10:31:15.251Z,38.42
2023-04-03T10:34:23.308Z,39.59
2023-04-03T10:37:16.198Z,39.15
2023-04-03T10:39:53.723Z,39.92
2023-04-03T10:42:38.575Z,40.44
2023-04-03T10:45:22.680Z,41.33
2023-04-03T10:48:00.275Z,41.98
2023-04-03T10:50:39.799Z,41.01
2023-04-03T10:53:29.540Z,41.33
2023-04-03T10:56:27.129Z,41.98
2023-04-03T10:58:59.868Z,41.93
2023-04-03T11:01:34.534Z,43.24
2023-04-03T11:04:04.806Z,41.91
2023-04-03T11:06:45.401Z,42.93
2023-04-03T11:09:27.566Z,44.64
2023-04-03T11:12:02.950Z,43.89
2023-04-03T11:14:39.057Z,44.59
2023-04-03T11:17:17.718Z,44.24
2023-04-03T11:20:01.135Z,44.08
2023-04-03T11:22:46.225Z,43.46
2023-04-03T11:25:12.792Z,43.25
2023-04-03T11:27:57.039Z,43.55
2023-04-03T11:30:31.090Z,43.64
2023-04-03T11:33:16.405Z,42.86
2023-04-03T11:35:46.191Z,42.97
2023-04-03T11:38:30.337Z,42.63
2023-04-03T11:40:57.687Z,41.47
2023-04-03T11:43:30.658Z,41.06
2023-04-03T11:46:00.295Z,41.11
2023-04-03T11:48:30.419Z,40.19
2023-04-03T11:50:57.840Z,39.40
2023-04-03T11:53:46.568Z,39.16
2023-04-03T11:56:25.447Z,37.17
2023-04-03T11:59:07.089Z,38.66
2023-04-03T12:01:52.157Z,36.78
2023-04-03T12:04:21.611Z,36.64
2023-04-03T12:06:48.212Z,36.22
2023-04-03T12:09:31.768Z,36.83
2023-04-03T12:12:02.507Z,35.02
2023-04-03T12:14:29.848Z,35.22
2023-04-03T12:16:58.904Z,35.45
2023-04-03T12:19:42.637Z,34.05
2023-04-03T12:22:16.285Z,34.34
2023-04-03T12:24:49.512Z,35.13
2023-04-03T12:27:30.042Z,34.74
2023-04-03T12:30:06.668Z,35.03
2023-04-03T12:32:42.681Z,34.76
2023-04-03T12:35:28.411Z,34.99
2023-04-03T12:38:33.516Z,35.45
2023-04-03T12:41:28.711Z,34.68
2023-04-03T12:44:23.190Z,34.33
2023-04-03T12:46:50.987Z,34.41
2023-04-03T12:49:42.610Z,34.35
2023-04-03T12:52:31.321Z,33.33
2023-04-03T12:55:00.132Z,34.59
2023-04-03T12:57:28.572Z,33.62
2023-04-03T12:59:55.786Z,33.82
2023-04-03T13:02:31.863Z,33.81
2023-04-03T13:05:05.872Z,32.92
2023-04-03T13:07:34.600Z,33.61
2023-04-03T13:13:08.322Z,31.42
2023-04-03T13:15:50.209Z,32.30
2023-04-03T13:18:30.773Z,31.84
2023-04-03T13:21:02.630Z,32.46
2023-04-03T13:23:30.477Z,32.41
2023-04-03T13:26:01.776Z,32.07
2023-04-03T13:28:28.656Z,30.72
2023-04-03T13:31:11.063Z,30.31
2023-04-03T13:33:39.004Z,28.98
2023-04-03T13:36:21.566Z,28.25
2023-04-03T13:39:13.751Z,25.36
2023-04-03T13:41:52.215Z,21.40
2023-04-03T13:44:21.838Z,21.71
2023-04-03T13:46:57.334Z,21.89
2023-04-03T13:49:35.296Z,21.93
2023-04-03T13:52:23.169Z,20.62
2023-04-03T13:54:56.585Z,20.02
2023-04-03T13:57:23.513Z,22.51
2023-04-03T13:59:50.961Z,24.47
2023-04-03T14:02:32.595Z,27.36
2023-04-03T14:05:02.491Z,26.96
2023-04-03T14:07:30.562Z,29.04
2023-04-03T14:09:57.186Z,29.07
2023-04-03T14:12:31.958Z,32.11
2023-04-03T14:15:03.461Z,30.38
2023-04-03T14:17:30.327Z,31.00
2023-04-03T14:19:58.968Z,31.09
2023-04-03T14:22:33.342Z,30.53
2023-04-03T14:25:01.843Z,30.17
2023-04-03T14:27:37.248Z,30.25
2023-04-03T14:30:05.779Z,30.37
2023-04-03T14:32:32.421Z,29.50
2023-04-03T14:34:59.526Z,29.89
2023-04-03T14:37:30.163Z,29.05
2023-04-03T14:39:58.743Z,28.69
2023-04-03T14:42:31.809Z,28.72
2023-04-03T14:44:59.757Z,29.04
2023-04-03T14:47:31.746Z,29.22
2023-04-03T14:50:01.918Z,28.77
2023-04-03T14:52:34.700Z,27.67
2023-04-03T14:55:03.713Z,27.83
2023-04-03T14:57:31.458Z,27.40
2023-04-03T14:59:58.154Z,27.88
2023-04-03T15:02:37.372Z,25.81
2023-04-03T15:05:07.574Z,25.42
2023-04-03T15:07:55.758Z,24.24
2023-04-03T15:10:25.789Z,23.97
2023-04-03T15:12:53.671Z,25.90
2023-04-03T15:15:22.048Z,25.90
2023-04-03T15:17:54.730Z,26.36
2023-04-03T15:20:24.036Z,27.61
2023-04-03T15:22:50.783Z,28.18
2023-04-03T15:25:17.484Z,28.17
2023-04-03T15:27:44.069Z,28.46
2023-04-03T15:30:19.177Z,28.15
2023-04-03T15:32:46.445Z,27.50
2023-04-03T15:35:13.061Z,27.53
2023-04-03T15:37:39.685Z,28.08
2023-04-03T15:40:07.886Z,27.75
2023-04-03T15:42:34.635Z,27.30
2023-04-03T15:45:01.228Z,27.29
2023-04-03T15:47:28.410Z,26.76
2023-04-03T15:49:55.978Z,27.74
2023-04-03T15:52:22.864Z,27.35
2023-04-03T15:54:49.544Z,26.57
2023-04-03T15:57:16.108Z,26.50
2023-04-03T15:59:42.674Z,26.54
2023-04-03T16:02:13.686Z,25.89
2023-04-03T16:04:41.197Z,26.04
2023-04-03T16:07:07.715Z,26.17
2023-04-03T16:09:35.873Z,26.32
2023-04-03T16:12:03.063Z,26.53
2023-04-03T16:14:31.235Z,25.52
2023-04-03T16:17:01.244Z,26.08
2023-04-03T16:19:27.989Z,25.44
2023-04-03T16:21:56.035Z,26.86
2023-04-03T16:24:22.872Z,26.02
2023-04-03T16:26:49.495Z,25.42
2023-04-03T16:29:16.014Z,25.98
2023-04-03T16:31:42.806Z,26.12
2023-04-03T16:34:09.447Z,26.27
2023-04-03T16:36:36.124Z,26.71
2023-04-03T16:39:02.779Z,26.86
2023-04-03T16:41:29.306Z,27.42
2023-04-03T16:43:56.008Z,27.45
2023-04-03T16:46:22.553Z,27.17
2023-04-03T16:48:49.151Z,26.82
2023-04-03T16:51:15.917Z,27.07
2023-04-03T16:53:43.206Z,27.43
2023-04-03T16:56:09.719Z,27.45
2023-04-03T16:58:36.272Z,27.13
2023-04-03T17:01:19.630Z,27.00
2023-04-03T17:03:46.351Z,27.05
2023-04-03T17:06:17.328Z,27.16
2023-04-03T17:08:45.185Z,27.95
2023-04-03T17:11:26.672Z,26.84
2023-04-03T17:13:53.258Z,27.56
2023-04-03T17:16:20.073Z,27.23
2023-04-03T17:18:47.864Z,27.94
2023-04-03T17:21:15.785Z,28.40
2023-04-03T17:23:45.234Z,28.90
2023-04-03T17:26:11.829Z,28.76
2023-04-03T17:28:40.513Z,28.73
2023-04-03T17:31:07.050Z,29.31
2023-04-03T17:33:33.636Z,29.77
2023-04-03T17:36:04.180Z,29.47
2023-04-03T17:38:33.809Z,29.85
2023-04-03T17:41:03.519Z,29.57
2023-04-03T17:43:30.577Z,30.21
2023-04-03T17:46:05.608Z,30.40
2023-04-03T17:48:33.919Z,31.08
2023-04-03T17:51:05.156Z,31.28
2023-04-03T17:53:31.980Z,30.97
2023-04-03T17:55:58.523Z,31.53
2023-04-03T17:58:25.093Z,31.30
2023-04-03T18:00:51.972Z,31.44
2023-04-03T18:03:18.590Z,30.80
2023-04-03T18:05:45.243Z,31.53
2023-04-03T18:08:11.828Z,31.45
2023-04-03T18:10:38.565Z,31.01
2023-04-03T18:13:07.652Z,30.78
2023-04-03T18:15:35.621Z,30.72
2023-04-03T18:18:02.386Z,30.59
2023-04-03T18:20:29.033Z,30.89
2023-04-03T18:22:55.600Z,31.87
2023-04-03T18:25:22.247Z,32.27
2023-04-03T18:27:49.527Z,33.28
2023-04-03T18:30:17.514Z,32.03
2023-04-03T18:32:44.300Z,32.38
2023-04-03T18:35:11.433Z,32.92
2023-04-03T18:37:38.078Z,32.67
2023-04-03T18:40:05.062Z,32.04
2023-04-03T18:42:31.836Z,32.50
2023-04-03T18:45:01.050Z,32.48
2023-04-03T18:47:28.997Z,31.69
2023-04-03T18:49:56.012Z,32.03
2023-04-03T18:52:25.123Z,32.46
2023-04-03T18:54:51.939Z,32.46
2023-04-03T18:57:18.633Z,32.60
2023-04-03T18:59:45.326Z,32.52
2023-04-03T19:02:13.775Z,32.64
2023-04-03T19:04:40.904Z,32.84
2023-04-03T19:07:09.523Z,33.24
2023-04-03T19:09:38.652Z,34.21
2023-04-03T19:12:06.896Z,33.31
2023-04-03T19:14:33.490Z,34.12
2023-04-03T19:17:02.106Z,34.02
2023-04-03T19:19:28.690Z,33.59
2023-04-03T19:21:55.213Z,34.13
2023-04-03T19:24:21.790Z,34.65
2023-04-03T19:26:48.350Z,34.19
2023-04-03T19:29:15.080Z,34.19
2023-04-03T19:31:41.800Z,34.93
2023-04-03T19:34:08.672Z,34.45
2023-04-03T19:36:35.956Z,34.63
2023-04-03T19:39:03.817Z,34.92
2023-04-03T19:41:32.981Z,35.06
2023-04-03T19:43:59.618Z,35.41
2023-04-03T19:46:29.025Z,35.15
2023-04-03T19:48:56.080Z,35.37
2023-04-03T19:51:22.924Z,35.57
2023-04-03T19:53:49.544Z,34.73
2023-04-03T19:56:16.853Z,35.04
2023-04-03T19:58:43.572Z,34.97
2023-04-03T20:01:10.210Z,35.83
2023-04-03T20:03:36.778Z,35.60
2023-04-03T20:06:04.941Z,35.22
2023-04-03T20:08:32.134Z,35.13
2023-04-03T20:10:58.765Z,35.44
2023-04-03T20:13:25.447Z,35.26
2023-04-03T20:15:52.034Z,34.98
2023-04-03T20:18:20.860Z,34.69
2023-04-03T20:20:59.468Z,35.52
2023-04-03T20:23:27.225Z,34.94
2023-04-03T20:26:08.546Z,35.04
2023-04-03T20:28:36.227Z,34.99
2023-04-03T20:31:03.031Z,34.93
2023-04-03T20:33:30.034Z,34.49
2023-04-03T20:35:58.078Z,35.28
2023-04-03T20:38:25.347Z,35.72
2023-04-03T20:40:52.279Z,34.70
2023-04-03T20:43:19.403Z,34.45
2023-04-03T20:45:46.056Z,35.44
2023-04-03T20:48:13.303Z,35.04
2023-04-03T20:50:41.249Z,34.86
2023-04-03T20:53:08.831Z,35.16
2023-04-03T20:55:35.599Z,35.06
2023-04-03T20:58:02.202Z,35.23
2023-04-03T21:00:32.200Z,35.34
2023-04-03T21:03:01.458Z,35.07
2023-04-03T21:05:30.022Z,35.01
2023-04-03T21:08:35.636Z,35.60
2023-04-03T21:11:40.057Z,35.79
2023-04-03T21:14:45.792Z,35.96
2023-04-03T21:17:12.372Z,36.36
2023-04-03T21:19:45.716Z,36.06
2023-04-03T21:22:13.555Z,35.81
2023-04-03T21:24:40.505Z,35.26
2023-04-03T21:27:08.162Z,35.27
2023-04-03T21:29:34.741Z,35.17
2023-04-03T21:32:01.620Z,35.29
2023-04-03T21:34:30.183Z,35.52
2023-04-03T21:37:01.160Z,35.48
2023-04-03T21:39:28.157Z,35.53
2023-04-03T21:41:55.000Z,36.29
2023-04-03T21:44:22.589Z,36.30
2023-04-03T21:46:53.598Z,35.88
2023-04-03T21:49:24.511Z,37.05
2023-04-03T21:51:51.744Z,37.57
2023-04-03T21:54:18.761Z,38.07
2023-04-03T21:56:47.750Z,37.65
2023-04-03T21:59:14.514Z,38.26
2023-04-03T22:01:41.348Z,38.53
2023-04-03T22:04:08.203Z,38.65
2023-04-03T22:06:34.770Z,39.08
2023-04-03T22:09:01.449Z,39.18
2023-04-03T22:11:28.981Z,39.02
2023-04-03T22:13:56.007Z,38.63
2023-04-03T22:16:23.537Z,39.14
2023-04-03T22:18:52.018Z,39.04
2023-04-03T22:21:18.908Z,39.12
2023-04-03T22:23:45.807Z,39.07
2023-04-03T22:26:13.349Z,40.18
2023-04-03T22:28:42.380Z,39.51
2023-04-03T22:31:14.033Z,39.39
2023-04-03T22:33:41.533Z,39.86
2023-04-03T22:36:10.263Z,39.96
2023-04-03T22:38:37.894Z,39.33
2023-04-03T22:41:06.256Z,39.60
2023-04-03T22:43:34.684Z,39.60
2023-04-03T22:46:02.664Z,39.77
2023-04-03T22:48:30.652Z,39.53
2023-04-03T22:50:57.651Z,39.60
2023-04-03T22:53:24.258Z,39.70
2023-04-03T22:56:01.679Z,39.08
2023-04-03T22:58:29.555Z,39.33
2023-04-03T23:01:09.309Z,39.68
2023-04-03T23:03:38.786Z,39.29
2023-04-03T23:06:06.292Z,38.59
2023-04-03T23:08:34.914Z,38.80
2023-04-03T23:11:02.139Z,38.61
2023-04-03T23:13:28.798Z,38.62
2023-04-03T23:15:56.384Z,38.81
2023-04-03T23:18:23.359Z,38.34
2023-04-03T23:20:51.667Z,38.03
2023-04-03T23:23:22.358Z,38.81
2023-04-03T23:25:57.128Z,38.45
2023-04-03T23:28:24.000Z,38.46
2023-04-03T23:30:56.929Z,38.78
2023-04-03T23:33:23.420Z,38.12
2023-04-03T23:35:50.076Z,38.23
2023-04-03T23:38:16.717Z,38.23
2023-04-03T23:40:44.129Z,38.22
2023-04-03T23:43:11.108Z,38.23
2023-04-03T23:45:37.628Z,38.97
2023-04-03T23:48:04.510Z,38.15
2023-04-03T23:50:31.553Z,38.07
2023-04-03T23:52:58.089Z,37.77
2023-04-03T23:55:24.682Z,38.97
2023-04-03T23:57:51.198Z,37.96
